Weather at Ramblazon de Reyes Airport

Public forecast

Using degrees Celsius for public forecast. Weather courtesy of forecast.io.

Closest aviation weather report (METAR) to Ramblazon de Reyes Airport

Closest report is Jardines Del Rey Airport, 62.7 nm (116.0 km) NE. Retrieved 2021/06/23 02:50 UTC (32 minutes ago):

MUCC 230250Z 36004KT 9000 SCT020 25/25 Q1018

Closest aviation forecast (TAF) to Ramblazon de Reyes Airport

Closest forecast is Jardines Del Rey Airport, 62.7 nm (116.0 km) NE. Retrieved 2021-06-23 00:03 UTC (3 hours ago):

TAF MUCC 222300Z 2300/2324 09010KT 9000 SCT020 TEMPO 2300/2302 5000 RA SCT018CB BKN020